SCSE/LSC METAR and TAF weather

Enter ICAO airport designator
Station Type Date Time Source
SCSE METAR 2019/06/17 04:00 UTC NOAA

SCSE 170400Z 11007KT CAVOK 07/05 Q1019


Station Type Date Time Source
SCSE Decoded METAR 2019/06/17 04:00 UTC NOAA

La Serena, Chile (SCSE) 29-54S 071-12W
Jun 17, 2019 - 12:00 AM EDT / 2019.06.17 0400 UTC
Wind: from the ESE (110 degrees) at 8 MPH (7 KT):0
Visibility: greater than 7 mile(s):0
Temperature: 44 F (7 C)
Dew Point: 41 F (5 C)
Relative Humidity: 87%
Pressure (altimeter): 30.09 in. Hg (1019 hPa)
ob: SCSE 170400Z 11007KT CAVOK 07/05 Q1019
cycle: 4

Station Type Date Time Source
SCSE TAF 2019/06/17 00:00 UTC NOAA

TAF SCSE 162220Z 1700/1724 28004KT CAVOK TX16/1718Z TN05/1711Z
BECMG 1702/1704 11004KT
BECMG 1714/1716 05005KT FEW035
BECMG 1718/1720 30012KT FEW030 SCT050

Example: see airport list